createdAt,value
2023-03-06T00:00:53.497Z,8.45
2023-03-06T00:05:57.681Z,7.60
2023-03-06T00:10:59.976Z,1.83
2023-03-06T00:16:02.101Z,5.80
2023-03-06T00:21:08.064Z,4.75
2023-03-06T00:26:10.846Z,6.70
2023-03-06T00:31:12.961Z,7.30
2023-03-06T00:36:15.015Z,5.60
2023-03-06T00:41:17.019Z,9.50
2023-03-06T00:46:18.976Z,2.42
2023-03-06T00:51:21.986Z,9.63
2023-03-06T00:56:24.338Z,5.50
2023-03-06T01:01:26.273Z,8.30
2023-03-06T01:06:28.530Z,8.65
2023-03-06T01:11:30.972Z,10.45
2023-03-06T01:16:33.376Z,1.90
2023-03-06T01:21:35.335Z,8.60
2023-03-06T01:26:37.418Z,9.80
2023-03-06T01:31:39.659Z,12.70
2023-03-06T01:36:41.802Z,9.95
2023-03-06T01:41:43.845Z,12.65
2023-03-06T01:46:46.479Z,10.35
2023-03-06T01:51:50.922Z,9.63
2023-03-06T01:56:57.585Z,8.70
2023-03-06T02:07:21.208Z,8.63
2023-03-06T02:12:24.157Z,10.15
2023-03-06T02:17:27.088Z,10.43
2023-03-06T02:22:43.806Z,8.90
2023-03-06T02:27:45.963Z,9.68
2023-03-06T02:32:47.945Z,9.43
2023-03-06T02:37:50.269Z,7.97
2023-03-06T02:42:58.355Z,9.20
2023-03-06T02:48:00.357Z,9.40
2023-03-06T02:53:02.371Z,9.40
2023-03-06T02:58:05.259Z,10.18
2023-03-06T03:03:08.087Z,11.50
2023-03-06T03:08:10.260Z,10.55
2023-03-06T03:13:12.249Z,10.20
2023-03-06T03:18:14.194Z,8.77
2023-03-06T03:23:16.153Z,9.23
2023-03-06T03:28:19.220Z,4.50
2023-03-06T03:33:21.173Z,5.25
2023-03-06T03:38:23.190Z,8.30
2023-03-06T03:43:25.089Z,11.05
2023-03-06T03:48:27.018Z,10.15
2023-03-06T03:53:29.000Z,11.00
2023-03-06T03:58:31.095Z,7.65
2023-03-06T04:03:33.106Z,8.02
2023-03-06T04:08:35.869Z,9.65
2023-03-06T04:13:37.861Z,8.80
2023-03-06T04:18:40.016Z,6.90
2023-03-06T04:23:41.987Z,8.98
2023-03-06T04:28:44.029Z,10.63
2023-03-06T04:33:46.081Z,10.63
2023-03-06T04:38:48.065Z,11.20
2023-03-06T04:43:50.207Z,8.85
2023-03-06T04:48:52.194Z,9.10
2023-03-06T04:53:54.326Z,8.25
2023-03-06T04:58:56.382Z,5.35
2023-03-06T05:03:58.395Z,10.63
2023-03-06T05:09:00.373Z,11.82
2023-03-06T05:14:02.365Z,9.60
2023-03-06T05:19:04.428Z,9.13
2023-03-06T05:24:06.688Z,3.10
2023-03-06T05:29:08.685Z,7.65
2023-03-06T05:34:14.346Z,5.63
2023-03-06T05:39:16.547Z,10.07
2023-03-06T05:44:18.510Z,7.97
2023-03-06T05:49:20.518Z,24.92
2023-03-06T05:54:24.622Z,5.68
2023-03-06T05:59:28.805Z,3.70
2023-03-06T06:04:30.853Z,1.52
2023-03-06T06:09:33.056Z,1.70
2023-03-06T06:14:35.243Z,10.90
2023-03-06T06:19:37.259Z,11.43
2023-03-06T06:24:39.444Z,20.73
2023-03-06T06:29:41.507Z,17.48
2023-03-06T06:34:43.557Z,27.75
2023-03-06T06:39:45.573Z,27.92
2023-03-06T06:44:47.690Z,30.88
2023-03-06T06:49:54.466Z,11.95
2023-03-06T06:54:56.715Z,4.10
2023-03-06T06:59:58.898Z,18.15
2023-03-06T07:05:04.720Z,12.63
2023-03-06T07:10:12.559Z,14.48
2023-03-06T07:15:16.055Z,12.10
2023-03-06T07:25:21.026Z,14.95
2023-03-06T07:30:24.389Z,20.27
2023-03-06T07:35:26.720Z,15.07
2023-03-06T07:40:28.875Z,16.65
2023-03-06T07:45:30.945Z,16.30
2023-03-06T07:50:33.663Z,14.60
2023-03-06T07:55:35.635Z,11.10
2023-03-06T08:00:37.596Z,14.90
2023-03-06T08:05:40.002Z,9.98
2023-03-06T08:10:48.230Z,12.27
2023-03-06T08:15:50.239Z,17.73
2023-03-06T08:21:08.334Z,13.57
2023-03-06T08:26:16.421Z,9.85
2023-03-06T08:31:37.225Z,13.88
2023-03-06T08:36:39.298Z,14.20
2023-03-06T08:41:42.561Z,12.15
2023-03-06T08:51:46.448Z,15.20
2023-03-06T08:56:48.545Z,8.75
2023-03-06T09:01:50.545Z,28.48
2023-03-06T09:06:54.502Z,5.97
2023-03-06T09:11:57.534Z,9.30
2023-03-06T09:16:59.767Z,18.90
2023-03-06T09:22:01.879Z,15.25
2023-03-06T09:27:04.011Z,18.52
2023-03-06T09:32:06.518Z,13.23
2023-03-06T09:37:08.569Z,20.58
2023-03-06T09:42:17.744Z,13.10
2023-03-06T09:47:28.953Z,14.93
2023-03-06T09:52:41.368Z,10.02
2023-03-06T09:57:56.318Z,16.88
2023-03-06T10:03:16.288Z,14.48
2023-03-06T10:08:36.755Z,14.80
2023-03-06T10:13:46.291Z,9.32
2023-03-06T10:18:48.419Z,10.18
2023-03-06T10:24:10.742Z,7.20
2023-03-06T10:29:12.704Z,5.10
2023-03-06T10:34:24.717Z,9.80
2023-03-06T10:39:28.709Z,8.85
2023-03-06T10:44:30.939Z,9.75
2023-03-06T10:49:36.524Z,7.38
2023-03-06T10:54:41.912Z,6.82
2023-03-06T10:59:55.694Z,6.03
2023-03-06T11:05:00.219Z,7.43
2023-03-06T11:10:19.361Z,9.07
2023-03-06T11:15:24.637Z,8.98
2023-03-06T11:20:49.985Z,8.68
2023-03-06T11:25:57.291Z,5.53
2023-03-06T11:31:08.517Z,3.33
2023-03-06T11:36:16.605Z,8.88
2023-03-06T11:41:38.724Z,8.23
2023-03-06T11:46:49.987Z,6.47
2023-03-06T11:51:56.378Z,8.70
2023-03-06T11:57:02.645Z,4.97
2023-03-06T12:02:15.268Z,12.27
2023-03-06T12:07:28.214Z,11.00
2023-03-06T12:12:48.646Z,9.77
2023-03-06T12:18:01.662Z,5.68
2023-03-06T12:23:40.972Z,13.52
2023-03-06T12:29:01.052Z,12.50
2023-03-06T12:34:38.420Z,12.27
2023-03-06T12:40:22.391Z,15.20
2023-03-06T12:45:33.682Z,14.32
2023-03-06T12:50:37.502Z,10.20
2023-03-06T12:55:50.144Z,15.40
2023-03-06T13:01:04.751Z,11.38
2023-03-06T13:06:21.748Z,9.98
2023-03-06T13:11:34.860Z,10.80
2023-03-06T13:16:36.986Z,11.15
2023-03-06T13:21:41.888Z,13.07
2023-03-06T13:26:43.860Z,7.55
2023-03-06T13:31:45.997Z,9.57
2023-03-06T13:36:48.204Z,7.38
2023-03-06T13:41:54.374Z,13.43
2023-03-06T13:47:18.037Z,6.85
2023-03-06T13:52:34.134Z,9.25
2023-03-06T13:57:51.316Z,13.65
2023-03-06T14:02:58.293Z,14.30
2023-03-06T14:08:23.356Z,15.65
2023-03-06T14:13:41.859Z,10.15
2023-03-06T14:18:51.678Z,15.55
2023-03-06T14:24:20.620Z,15.13
2023-03-06T14:29:25.561Z,14.25
2023-03-06T14:34:33.314Z,14.13
2023-03-06T14:39:41.856Z,16.52
2023-03-06T14:44:44.138Z,17.17
2023-03-06T14:49:46.114Z,15.85
2023-03-06T14:54:49.166Z,8.02
2023-03-06T14:59:56.763Z,13.75
2023-03-06T15:05:11.918Z,16.02
2023-03-06T15:10:26.407Z,13.63
2023-03-06T15:15:31.364Z,8.15
2023-03-06T15:20:39.003Z,14.15
2023-03-06T15:25:41.113Z,15.18
2023-03-06T15:30:43.289Z,15.50
2023-03-06T15:36:03.173Z,16.40
2023-03-06T15:41:19.971Z,14.88
2023-03-06T15:46:22.094Z,18.52
2023-03-06T15:51:24.628Z,19.02
2023-03-06T15:56:33.803Z,18.98
2023-03-06T16:01:37.412Z,21.10
2023-03-06T16:06:39.844Z,33.65
2023-03-06T16:11:45.414Z,36.25
2023-03-06T16:16:49.683Z,45.72
2023-03-06T16:21:52.172Z,44.13
2023-03-06T16:26:55.316Z,32.78
2023-03-06T16:31:59.634Z,25.40
2023-03-06T16:37:02.507Z,35.65
2023-03-06T16:42:05.027Z,28.40
2023-03-06T16:47:11.928Z,25.10
2023-03-06T16:52:14.907Z,27.60
2023-03-06T17:02:21.652Z,27.92
2023-03-06T17:07:24.548Z,38.42
2023-03-06T17:12:26.912Z,40.95
2023-03-06T17:17:29.372Z,39.03
2023-03-06T17:22:34.652Z,39.75
2023-03-06T17:27:38.520Z,38.92
2023-03-06T17:32:41.452Z,38.25
2023-03-06T17:37:43.862Z,39.58
2023-03-06T17:42:48.012Z,46.20
2023-03-06T17:47:54.711Z,34.88
2023-03-06T17:52:57.483Z,23.70
2023-03-06T17:57:59.902Z,27.25
2023-03-06T18:03:03.011Z,23.38
2023-03-06T18:08:09.139Z,23.15
2023-03-06T18:13:12.265Z,24.40
2023-03-06T18:18:16.077Z,21.75
2023-03-06T18:23:19.996Z,20.10
2023-03-06T18:28:23.146Z,26.55
2023-03-06T18:33:26.290Z,21.48
2023-03-06T18:38:29.354Z,49.17
2023-03-06T18:48:35.277Z,22.80
2023-03-06T18:53:42.210Z,26.92
2023-03-06T18:58:46.680Z,32.25
2023-03-06T19:03:50.206Z,32.53
2023-03-06T19:08:57.168Z,29.15
2023-03-06T19:14:01.063Z,22.98
2023-03-06T19:19:04.273Z,27.10
2023-03-06T19:29:11.674Z,43.67
2023-03-06T19:34:16.311Z,32.25
2023-03-06T19:39:21.817Z,26.65
2023-03-06T19:44:25.179Z,29.17
2023-03-06T19:49:29.681Z,26.33
2023-03-06T19:54:32.716Z,24.13
2023-03-06T19:59:35.770Z,24.67
2023-03-06T20:04:39.210Z,25.20
2023-03-06T20:09:42.351Z,27.20
2023-03-06T20:14:47.034Z,23.25
2023-03-06T20:19:50.084Z,26.92
2023-03-06T20:24:53.492Z,26.08
2023-03-06T20:29:56.734Z,22.45
2023-03-06T20:35:00.002Z,21.17
2023-03-06T20:45:09.926Z,20.50
2023-03-06T20:50:16.428Z,20.98
2023-03-06T20:55:19.061Z,22.85
2023-03-06T21:00:22.252Z,27.52
2023-03-06T21:05:25.390Z,48.22
2023-03-06T21:10:28.209Z,52.72
2023-03-06T21:15:31.602Z,65.82
2023-03-06T21:20:34.715Z,58.00
2023-03-06T21:25:37.035Z,45.17
2023-03-06T21:30:39.611Z,36.80
2023-03-06T21:35:43.182Z,29.35
2023-03-06T21:40:45.779Z,26.13
2023-03-06T21:45:49.377Z,23.23
2023-03-06T21:50:51.466Z,21.35
2023-03-06T21:55:53.451Z,21.65
2023-03-06T22:00:55.614Z,22.63
2023-03-06T22:06:08.162Z,24.48
2023-03-06T22:11:13.336Z,25.65
2023-03-06T22:16:16.041Z,24.85
2023-03-06T22:21:21.106Z,22.98
2023-03-06T22:26:23.475Z,21.52
2023-03-06T22:31:28.803Z,22.80
2023-03-06T22:36:31.828Z,23.05
2023-03-06T22:41:33.847Z,21.67
2023-03-06T22:46:35.930Z,21.10
2023-03-06T22:51:38.342Z,16.45
2023-03-06T22:56:40.395Z,17.33
2023-03-06T23:01:43.543Z,16.63
2023-03-06T23:06:47.196Z,18.98
2023-03-06T23:16:52.054Z,14.10
2023-03-06T23:21:54.053Z,15.10
2023-03-06T23:26:56.087Z,14.20
2023-03-06T23:31:58.047Z,15.50
2023-03-06T23:37:00.131Z,15.63
2023-03-06T23:42:02.128Z,12.45
2023-03-06T23:47:04.167Z,7.22
2023-03-06T23:52:06.205Z,15.27
2023-03-06T23:57:08.165Z,18.33
